Time;durP1;ratioP1;P1;durP2;ratioP2;P2;SDS_P1;SDS_P2;PMS_P1;PMS_P2;Temp;Humidity;BMP_temperature;BMP_pressure;BME280_temperature;BME280_humidity;BME280_pressure;Samples;Min_cycle;Max_cycle;Signal;HPM_P1;HPM_P2
2021/09/03 00:02:08;;;;;;;8.93;6.13;;;;;;;12.60;86.11;101467.19;5065173;28;20479;-80
2021/09/03 00:04:33;;;;;;;6.80;5.60;;;;;;;12.61;86.12;101455.69;5014911;28;20101;-80
2021/09/03 00:06:59;;;;;;;8.38;5.93;;;;;;;12.60;86.35;101460.97;5065895;28;20044;-79
2021/09/03 00:09:24;;;;;;;8.55;7.20;;;;;;;12.58;86.70;101457.47;5064896;28;20040;-79
2021/09/03 00:11:49;;;;;;;8.95;7.45;;;;;;;12.52;86.69;101458.34;5066131;28;20047;-79
2021/09/03 00:14:15;;;;;;;7.50;5.88;;;;;;;12.54;86.72;101456.56;5063293;28;20037;-79
2021/09/03 00:16:40;;;;;;;7.80;6.25;;;;;;;12.55;86.55;101449.50;5066772;28;20167;-79
2021/09/03 00:19:06;;;;;;;7.32;6.00;;;;;;;12.52;86.38;101453.03;5025596;28;20042;-79
2021/09/03 00:21:31;;;;;;;8.60;6.18;;;;;;;12.48;86.54;101448.63;5065953;28;20032;-79
2021/09/03 00:23:57;;;;;;;6.72;4.82;;;;;;;12.45;86.96;101441.56;5063491;28;20126;-79
2021/09/03 00:26:22;;;;;;;6.57;4.85;;;;;;;12.43;87.07;101437.16;5065204;28;20051;-79
2021/09/03 00:28:47;;;;;;;8.35;6.47;;;;;;;12.35;87.29;101438.91;5029418;28;20066;-79
2021/09/03 00:31:13;;;;;;;9.68;7.93;;;;;;;12.28;88.17;101432.72;5064585;28;20040;-79
2021/09/03 00:33:38;;;;;;;9.20;6.20;;;;;;;12.31;87.76;101432.72;5064486;28;20056;-79
2021/09/03 00:36:03;;;;;;;8.23;6.43;;;;;;;12.33;86.86;101440.69;5063589;28;20041;-79
2021/09/03 00:38:29;;;;;;;6.78;5.10;;;;;;;12.30;86.48;101432.75;5065816;28;20105;-79
2021/09/03 00:40:54;;;;;;;6.20;4.93;;;;;;;12.33;86.55;101438.03;5045679;28;20067;-79
2021/09/03 00:43:19;;;;;;;8.27;6.00;;;;;;;12.33;86.67;101443.31;5066073;28;20516;-79
2021/09/03 00:45:45;;;;;;;7.43;6.45;;;;;;;12.27;86.89;101444.22;5062048;28;20033;-79
2021/09/03 00:48:10;;;;;;;9.13;7.85;;;;;;;12.19;87.33;101438.91;5065681;28;20032;-79
2021/09/03 00:50:36;;;;;;;8.90;5.53;;;;;;;12.16;87.51;101440.66;5062716;28;20154;-79
2021/09/03 00:53:04;;;;;;;9.55;5.72;;;;;;;12.15;87.98;101442.41;5065056;28;20044;-79
2021/09/03 00:55:29;;;;;;;7.32;5.50;;;;;;;12.20;87.24;101429.19;5065549;28;20040;-79
2021/09/03 00:57:54;;;;;;;8.02;6.05;;;;;;;12.20;86.52;101431.84;5030254;28;20032;-79
2021/09/03 01:00:20;;;;;;;7.65;5.82;;;;;;;12.18;86.52;101426.56;5029307;28;20510;-80
2021/09/03 01:02:46;;;;;;;7.22;5.38;;;;;;;12.19;86.64;101433.59;5045830;28;20043;-79
2021/09/03 01:05:11;;;;;;;8.35;5.95;;;;;;;12.17;86.45;101421.25;5046067;28;20059;-79
2021/09/03 01:07:36;;;;;;;8.88;5.72;;;;;;;12.17;86.00;101424.78;5031881;28;20119;-79
2021/09/03 01:10:04;;;;;;;6.82;5.25;;;;;;;12.18;86.15;101417.72;5062965;28;20063;-80
2021/09/03 01:12:29;;;;;;;7.20;5.40;;;;;;;12.12;85.40;101415.94;5047226;28;20036;-79
2021/09/03 01:14:54;;;;;;;7.22;5.38;;;;;;;12.11;86.06;101419.47;5062362;28;20039;-80
2021/09/03 01:17:20;;;;;;;8.23;5.32;;;;;;;12.10;85.96;101416.81;5063940;28;20392;-79
2021/09/03 01:19:49;;;;;;;9.05;6.38;;;;;;;12.07;86.20;101428.28;5062171;28;20033;-79
2021/09/03 01:22:14;;;;;;;8.48;6.47;;;;;;;12.03;86.50;101413.28;5036494;28;20064;-79
2021/09/03 01:24:39;;;;;;;7.97;6.13;;;;;;;12.05;86.81;101414.16;5064619;28;20495;-79
2021/09/03 01:27:05;;;;;;;7.78;6.40;;;;;;;12.05;86.63;101415.06;5062250;28;20722;-79
2021/09/03 01:29:30;;;;;;;7.93;5.95;;;;;;;12.06;86.59;101418.59;5046302;28;20020;-79
2021/09/03 01:31:55;;;;;;;7.47;5.00;;;;;;;12.01;86.13;101415.06;5062923;28;20028;-79
2021/09/03 01:34:21;;;;;;;7.65;5.30;;;;;;;11.99;86.67;101420.31;5063799;28;20043;-79
2021/09/03 01:36:46;;;;;;;8.07;5.63;;;;;;;11.96;86.63;101409.75;5063396;28;20041;-80
2021/09/03 01:39:11;;;;;;;8.48;5.90;;;;;;;11.91;86.84;101408.84;5028800;28;20083;-79
2021/09/03 01:41:37;;;;;;;8.85;5.63;;;;;;;11.91;86.63;101405.31;5063999;28;20032;-79
2021/09/03 01:44:02;;;;;;;11.50;6.40;;;;;;;11.96;86.95;101409.75;5011321;28;20040;-80
2021/09/03 01:46:28;;;;;;;34.00;8.52;;;;;;;11.93;86.53;101401.81;5029662;28;20036;-80
2021/09/03 01:48:53;;;;;;;9.48;7.13;;;;;;;11.87;87.01;101403.53;5061098;28;20090;-79
2021/09/03 01:51:18;;;;;;;13.23;8.45;;;;;;;11.89;87.01;101400.00;5064003;28;20044;-80
2021/09/03 01:53:44;;;;;;;15.40;7.20;;;;;;;11.92;87.40;101401.78;5064262;28;20040;-80
2021/09/03 01:56:09;;;;;;;23.05;8.23;;;;;;;11.90;86.97;101398.28;5061676;28;20045;-80
2021/09/03 01:58:34;;;;;;;12.80;8.32;;;;;;;11.84;87.63;101393.78;5063221;28;20025;-79
2021/09/03 02:01:00;;;;;;;11.00;7.72;;;;;;;11.79;88.19;101401.75;5044947;28;20073;-80
2021/09/03 02:03:25;;;;;;;9.48;7.15;;;;;;;11.84;87.72;101394.72;5063141;28;20033;-80
2021/09/03 02:05:51;;;;;;;10.80;7.25;;;;;;;11.85;87.10;101390.28;5064543;28;20086;-80
2021/09/03 02:08:16;;;;;;;11.73;7.82;;;;;;;11.83;87.24;101390.28;5065232;28;20037;-80
2021/09/03 02:10:41;;;;;;;9.63;6.70;;;;;;;11.80;87.13;101392.91;5047510;28;20075;-80
2021/09/03 02:13:07;;;;;;;10.93;8.57;;;;;;;11.74;87.50;101397.31;5062334;28;20025;-80
2021/09/03 02:15:32;;;;;;;10.73;6.95;;;;;;;11.76;87.93;101392.91;5047964;28;20035;-80
2021/09/03 02:17:57;;;;;;;11.13;7.40;;;;;;;11.78;87.55;101386.72;5044019;28;20411;-80
2021/09/03 02:20:23;;;;;;;7.97;5.97;;;;;;;11.75;87.28;101386.72;5064307;28;20037;-79
2021/09/03 02:22:48;;;;;;;8.02;6.47;;;;;;;11.78;87.55;101384.09;5061872;28;20033;-80
2021/09/03 02:25:13;;;;;;;9.15;5.65;;;;;;;11.84;86.74;101385.88;5062871;28;20430;-80
2021/09/03 02:27:39;;;;;;;8.60;5.55;;;;;;;11.87;86.69;101382.38;5044412;28;20651;-79
2021/09/03 02:30:08;;;;;;;8.80;5.80;;;;;;;11.90;86.97;101380.63;5062169;28;20483;-80
2021/09/03 02:32:34;;;;;;;9.50;7.05;;;;;;;11.97;87.04;101374.50;5062522;28;20086;-80
2021/09/03 02:34:59;;;;;;;9.00;6.90;;;;;;;12.03;86.99;101381.53;5062534;28;20064;-80
2021/09/03 02:37:24;;;;;;;9.43;6.90;;;;;;;12.08;86.64;101379.78;5028637;28;20060;-80
2021/09/03 02:39:50;;;;;;;10.30;7.13;;;;;;;12.10;86.05;101367.41;5043713;28;20144;-79
2021/09/03 02:42:15;;;;;;;10.07;7.13;;;;;;;12.11;86.21;101368.31;5067115;28;20036;-79
2021/09/03 02:44:41;;;;;;;17.52;8.10;;;;;;;12.15;85.82;101365.66;5065043;28;20028;-79
2021/09/03 02:47:06;;;;;;;39.10;12.88;;;;;;;12.12;86.22;101368.31;5068591;28;20478;-80
2021/09/03 02:49:32;;;;;;;30.50;11.75;;;;;;;11.97;87.83;101368.28;5062362;28;20669;-79
2021/09/03 02:51:57;;;;;;;19.95;10.50;;;;;;;11.92;88.24;101362.09;5064602;28;20128;-79
2021/09/03 02:54:22;;;;;;;15.05;9.98;;;;;;;11.97;88.05;101360.34;5062544;28;20037;-79
2021/09/03 02:56:48;;;;;;;42.60;11.75;;;;;;;11.99;87.60;101358.59;5046040;28;20037;-79
2021/09/03 02:59:13;;;;;;;31.88;12.70;;;;;;;11.99;87.67;101355.94;5067244;28;20044;-79
2021/09/03 03:01:38;;;;;;;20.10;10.25;;;;;;;11.96;87.82;101354.19;5048695;28;20056;-79
2021/09/03 03:04:03;;;;;;;19.92;10.35;;;;;;;11.93;87.16;101350.66;5067781;28;20406;-79
2021/09/03 03:06:29;;;;;;;16.02;11.35;;;;;;;11.90;88.06;101350.66;5040779;28;20423;-79
2021/09/03 03:08:54;;;;;;;17.48;11.00;;;;;;;11.81;88.98;101351.47;5068070;28;20513;-79
2021/09/03 03:11:19;;;;;;;23.90;10.77;;;;;;;11.87;89.67;101355.94;5065145;28;20037;-79
2021/09/03 03:13:49;;;;;;;22.38;11.77;;;;;;;11.93;89.54;101350.66;5068636;28;20071;-79
2021/09/03 03:16:15;;;;;;;16.08;11.07;;;;;;;12.06;89.32;101349.78;5043047;28;20033;-80
2021/09/03 03:18:41;;;;;;;11.07;8.57;;;;;;;12.13;88.80;101348.94;5050440;28;20040;-79
2021/09/03 03:21:07;;;;;;;14.32;9.10;;;;;;;12.25;88.79;101334.81;5064894;28;20037;-79
2021/09/03 03:23:33;;;;;;;13.23;9.52;;;;;;;12.26;88.34;101340.09;5068263;28;20094;-80
2021/09/03 03:25:58;;;;;;;21.17;9.52;;;;;;;12.27;88.11;101336.56;5065341;28;20028;-79
2021/09/03 03:28:23;;;;;;;24.17;9.48;;;;;;;12.32;88.29;101341.88;5067300;28;20044;-79
2021/09/03 03:30:49;;;;;;;14.45;9.02;;;;;;;12.34;87.88;101333.91;5031627;28;20554;-79
2021/09/03 03:33:14;;;;;;;12.70;8.85;;;;;;;12.27;87.58;101328.63;5064474;28;20032;-80
2021/09/03 03:35:39;;;;;;;45.55;9.57;;;;;;;12.35;87.89;101328.63;5061536;28;20437;-79
2021/09/03 03:38:06;;;;;;;19.58;8.90;;;;;;;12.30;87.40;101330.38;5049134;28;20480;-79
2021/09/03 03:40:31;;;;;;;16.05;8.77;;;;;;;12.36;87.78;101330.38;5067086;28;20036;-79
2021/09/03 03:42:56;;;;;;;33.80;11.30;;;;;;;12.39;87.58;101319.81;5043837;28;20086;-79
2021/09/03 03:45:22;;;;;;;27.10;9.35;;;;;;;12.44;86.51;101306.53;5067234;28;20035;-79
2021/09/03 03:47:47;;;;;;;17.20;8.27;;;;;;;12.45;86.67;101316.25;5046186;28;20037;-81
2021/09/03 03:50:12;;;;;;;29.90;8.93;;;;;;;12.48;86.93;101318.91;5060461;28;20060;-80
2021/09/03 03:52:39;;;;;;;20.30;8.80;;;;;;;12.50;86.92;101320.66;5063637;28;20039;-80
2021/09/03 03:55:05;;;;;;;11.50;7.47;;;;;;;12.49;87.63;101315.34;5031841;28;20469;-79
2021/09/03 03:57:30;;;;;;;14.57;7.80;;;;;;;12.47;88.31;101315.38;5064191;28;20032;-80
2021/09/03 03:59:56;;;;;;;24.33;10.02;;;;;;;12.54;87.66;101310.94;5065644;28;20080;-80
2021/09/03 04:02:21;;;;;;;25.90;8.90;;;;;;;12.61;87.80;101309.19;5046982;28;20491;-80
2021/09/03 04:04:47;;;;;;;28.33;9.55;;;;;;;12.56;87.84;101306.53;5064304;28;20047;-79
2021/09/03 04:07:12;;;;;;;22.95;8.23;;;;;;;12.59;87.42;101301.22;5047110;28;20064;-80
2021/09/03 04:09:37;;;;;;;20.45;9.60;;;;;;;12.60;87.62;101297.72;5062864;28;20083;-80
2021/09/03 04:12:03;;;;;;;19.65;7.88;;;;;;;12.64;87.62;101303.88;5062779;28;20055;-80
2021/09/03 04:14:29;;;;;;;15.45;7.82;;;;;;;12.64;87.38;101302.09;5062747;28;20442;-80
2021/09/03 04:16:54;;;;;;;21.05;8.20;;;;;;;12.64;87.48;101302.09;5048221;28;20041;-79
2021/09/03 04:19:19;;;;;;;39.00;9.65;;;;;;;12.60;87.09;101305.66;5060745;28;20037;-79
2021/09/03 04:21:45;;;;;;;12.95;8.32;;;;;;;12.59;87.00;101301.22;5065457;28;20036;-79
2021/09/03 04:24:10;;;;;;;32.42;8.95;;;;;;;12.60;87.13;101304.75;5042465;28;20044;-79
2021/09/03 04:26:35;;;;;;;38.75;11.02;;;;;;;12.60;86.74;101304.75;5062763;28;20028;-80
2021/09/03 04:29:01;;;;;;;35.47;9.25;;;;;;;12.57;87.11;101297.69;5060634;28;20087;-80
2021/09/03 04:31:26;;;;;;;23.77;11.32;;;;;;;12.50;87.31;101296.84;5069383;28;20078;-80
2021/09/03 04:33:51;;;;;;;78.28;18.33;;;;;;;12.44;87.43;101294.22;5061279;28;20041;-80
2021/09/03 04:36:17;;;;;;;35.05;11.68;;;;;;;12.42;87.33;101289.81;5060234;28;20036;-79
2021/09/03 04:38:42;;;;;;;18.35;8.57;;;;;;;12.42;87.83;101287.16;5061385;28;20021;-79
2021/09/03 04:41:08;;;;;;;22.45;8.80;;;;;;;12.43;87.21;101286.25;5063360;28;20090;-79
2021/09/03 04:43:33;;;;;;;28.13;10.13;;;;;;;12.43;87.17;101292.44;5065363;28;20040;-80
2021/09/03 04:45:58;;;;;;;12.98;8.30;;;;;;;12.41;86.95;101288.03;5038548;28;20115;-80
2021/09/03 04:48:24;;;;;;;16.20;9.95;;;;;;;12.34;87.59;101286.25;5065594;28;20040;-79
2021/09/03 04:50:51;;;;;;;18.23;10.73;;;;;;;12.19;88.76;101290.69;5044654;28;20100;-79
2021/09/03 04:53:16;;;;;;;10.88;8.90;;;;;;;12.17;88.96;101288.94;5051443;28;20048;-79
2021/09/03 04:55:42;;;;;;;12.20;10.40;;;;;;;12.15;88.35;101290.69;5062536;28;20448;-79
2021/09/03 04:58:07;;;;;;;10.05;8.48;;;;;;;12.15;88.02;101294.22;5064771;28;20041;-79
2021/09/03 05:00:32;;;;;;;9.10;8.20;;;;;;;12.17;88.70;101295.09;5064248;28;20040;-79
2021/09/03 05:02:58;;;;;;;7.90;6.93;;;;;;;12.20;88.10;101289.81;5063749;28;20020;-79
2021/09/03 05:05:23;;;;;;;10.07;8.15;;;;;;;12.21;87.87;101291.59;5065308;28;20063;-80
2021/09/03 05:07:49;;;;;;;10.50;8.70;;;;;;;12.26;87.70;101292.47;5063035;28;20083;-79
2021/09/03 05:10:14;;;;;;;8.23;7.28;;;;;;;12.27;87.23;101291.56;5065706;28;20033;-80
2021/09/03 05:12:40;;;;;;;9.88;7.32;;;;;;;12.32;87.18;101290.69;5044398;28;20510;-79
2021/09/03 05:15:09;;;;;;;7.35;6.55;;;;;;;12.35;87.22;101295.97;5060374;28;20505;-79
2021/09/03 05:17:35;;;;;;;7.68;6.60;;;;;;;12.35;86.60;101294.22;5056455;28;20032;-79
2021/09/03 05:20:00;;;;;;;15.20;10.55;;;;;;;12.33;87.65;101292.44;5059753;28;20115;-79
2021/09/03 05:22:25;;;;;;;11.65;9.60;;;;;;;12.38;87.60;101294.19;5065764;28;20040;-79
2021/09/03 05:24:51;;;;;;;9.73;8.20;;;;;;;12.46;87.26;101296.84;5060377;28;20040;-79
2021/09/03 05:27:16;;;;;;;9.60;7.88;;;;;;;12.54;87.22;101294.19;5063611;28;20029;-79
2021/09/03 05:29:41;;;;;;;10.85;8.98;;;;;;;12.59;86.71;101295.94;5064068;28;20040;-80
2021/09/03 05:32:07;;;;;;;10.55;8.80;;;;;;;12.69;86.63;101286.19;5046227;28;20136;-80
2021/09/03 05:34:32;;;;;;;12.48;10.38;;;;;;;12.76;86.82;101287.03;5064994;28;20070;-80
2021/09/03 05:36:57;;;;;;;10.70;9.00;;;;;;;12.86;86.28;101288.78;5062427;28;20036;-79
2021/09/03 05:39:23;;;;;;;13.65;10.75;;;;;;;12.92;86.07;101296.72;5065108;28;20078;-79
2021/09/03 05:41:48;;;;;;;10.35;9.10;;;;;;;12.98;85.69;101288.75;5062137;28;20041;-80
2021/09/03 05:44:13;;;;;;;13.40;11.90;;;;;;;13.04;86.37;101288.72;5048488;28;20040;-80
2021/09/03 05:46:39;;;;;;;11.43;9.95;;;;;;;13.13;86.00;101288.69;5062304;28;20116;-80
2021/09/03 05:49:04;;;;;;;10.93;9.68;;;;;;;13.24;86.12;101290.41;5066170;28;20072;-80
2021/09/03 05:51:29;;;;;;;13.63;10.68;;;;;;;13.27;85.98;101283.34;5063743;28;20032;-79
2021/09/03 05:53:55;;;;;;;18.33;11.18;;;;;;;13.32;86.59;101284.19;5062428;28;20071;-80
2021/09/03 05:56:20;;;;;;;14.02;10.85;;;;;;;13.42;86.19;101279.75;5063092;28;20071;-80
2021/09/03 05:58:46;;;;;;;13.48;11.77;;;;;;;13.49;85.93;101281.47;5063665;28;20495;-80
2021/09/03 06:01:11;;;;;;;15.55;12.65;;;;;;;13.58;85.83;101283.16;5062575;28;20021;-80
2021/09/03 06:03:36;;;;;;;14.57;12.35;;;;;;;13.61;85.95;101280.50;5062816;28;20044;-80
2021/09/03 06:06:02;;;;;;;15.05;11.77;;;;;;;13.71;86.40;101278.66;5056517;28;20079;-80
2021/09/03 06:08:27;;;;;;;14.60;12.45;;;;;;;13.80;85.98;101278.59;5063257;28;20036;-80
2021/09/03 06:10:52;;;;;;;15.60;11.13;;;;;;;13.90;85.96;101282.94;5060918;28;20108;-80
2021/09/03 06:13:18;;;;;;;17.48;13.07;;;;;;;13.97;85.97;101279.34;5064697;28;20043;-80
2021/09/03 06:15:43;;;;;;;17.17;14.25;;;;;;;14.05;85.72;101275.75;5061025;28;20037;-80
2021/09/03 06:18:09;;;;;;;16.42;13.60;;;;;;;14.12;85.73;101275.69;5063981;28;20058;-81
2021/09/03 06:20:34;;;;;;;16.50;13.48;;;;;;;14.20;85.26;101264.97;5062185;28;20044;-80
2021/09/03 06:22:59;;;;;;;22.30;14.55;;;;;;;14.30;85.31;101266.66;5067735;28;20060;-82
2021/09/03 06:25:25;;;;;;;17.50;15.07;;;;;;;14.32;85.40;101258.69;5066465;28;20037;-83
2021/09/03 06:27:50;;;;;;;22.02;15.02;;;;;;;14.37;85.25;101268.34;5065879;28;20040;-83
2021/09/03 06:30:16;;;;;;;20.73;14.60;;;;;;;14.32;85.45;101259.56;5043431;28;20402;-82
2021/09/03 06:32:41;;;;;;;23.95;15.63;;;;;;;14.40;84.96;101257.69;5042124;28;20510;-82
2021/09/03 06:35:07;;;;;;;15.27;13.18;;;;;;;14.47;84.82;101254.09;5061932;28;20111;-83
2021/09/03 06:37:33;;;;;;;16.25;12.63;;;;;;;14.56;84.44;101255.78;5068006;28;20048;-82
2021/09/03 06:39:58;;;;;;;16.40;12.20;;;;;;;14.65;83.98;101254.81;5064434;28;20399;-82
2021/09/03 06:42:24;;;;;;;19.17;14.23;;;;;;;14.72;84.54;101251.16;5050193;28;20043;-82
2021/09/03 06:44:50;;;;;;;20.38;14.80;;;;;;;14.81;84.37;101253.75;5064448;28;20502;-82
2021/09/03 06:47:17;;;;;;;20.25;14.13;;;;;;;14.85;84.42;101250.13;5048799;28;20031;-82
2021/09/03 06:49:43;;;;;;;24.35;15.30;;;;;;;14.94;84.21;101254.47;5046144;28;20080;-82
2021/09/03 06:52:10;;;;;;;24.15;15.70;;;;;;;15.04;84.38;101260.56;5065424;28;20041;-82
2021/09/03 06:54:37;;;;;;;20.67;15.98;;;;;;;15.07;84.10;101253.41;5047092;28;20048;-83
2021/09/03 06:57:03;;;;;;;22.73;15.27;;;;;;;15.13;83.92;101242.69;5066419;28;20510;-82
2021/09/03 06:59:28;;;;;;;20.13;14.13;;;;;;;15.23;83.55;101247.88;5048061;28;20056;-82
2021/09/03 07:01:54;;;;;;;16.17;13.90;;;;;;;15.29;83.31;101246.00;5031733;28;20033;-82
2021/09/03 07:04:20;;;;;;;17.55;13.68;;;;;;;15.36;82.89;101245.94;5066147;28;20041;-83
2021/09/03 07:06:46;;;;;;;17.05;13.88;;;;;;;15.41;83.22;101236.97;5065003;28;20029;-82
2021/09/03 07:09:11;;;;;;;20.95;15.18;;;;;;;15.51;83.11;101230.63;5068425;28;20449;-82
2021/09/03 07:11:36;;;;;;;17.85;14.25;;;;;;;15.59;82.99;101226.94;5067686;28;20039;-83
2021/09/03 07:14:03;;;;;;;18.58;13.43;;;;;;;15.70;82.54;101228.56;5065847;28;20060;-83
2021/09/03 07:16:29;;;;;;;16.63;13.02;;;;;;;15.83;82.38;101228.38;5049295;28;20032;-82
2021/09/03 07:18:55;;;;;;;15.65;12.05;;;;;;;15.96;82.36;101221.94;5064381;28;20061;-82
2021/09/03 07:21:21;;;;;;;16.73;13.30;;;;;;;16.04;82.18;101225.34;5049737;28;20119;-82
2021/09/03 07:23:46;;;;;;;16.17;12.68;;;;;;;16.11;81.67;101229.66;5047353;28;20099;-83
2021/09/03 07:26:11;;;;;;;20.73;15.48;;;;;;;16.15;81.76;101231.34;5032731;28;20050;-83
2021/09/03 07:28:37;;;;;;;18.15;14.90;;;;;;;16.24;81.60;101235.63;5066181;28;20090;-83
2021/09/03 07:31:02;;;;;;;17.40;14.27;;;;;;;16.37;81.70;101217.63;5031932;28;20033;-82
2021/09/03 07:33:27;;;;;;;18.45;14.50;;;;;;;16.51;81.07;101220.06;5065982;28;20067;-82
2021/09/03 07:35:53;;;;;;;15.73;13.63;;;;;;;16.64;80.73;101218.91;5065627;28;20099;-82
2021/09/03 07:38:18;;;;;;;19.17;14.82;;;;;;;16.74;80.95;101215.13;5049329;28;20059;-83
2021/09/03 07:40:44;;;;;;;19.42;14.00;;;;;;;16.85;80.76;101217.59;5065245;28;20037;-82
2021/09/03 07:43:10;;;;;;;19.75;15.55;;;;;;;16.96;80.04;101214.69;5068245;28;20120;-82
2021/09/03 07:45:37;;;;;;;24.27;14.77;;;;;;;17.05;79.41;101222.47;5049901;28;20072;-83
2021/09/03 07:48:03;;;;;;;17.60;13.80;;;;;;;17.12;78.93;101218.78;5064103;28;20062;-82
2021/09/03 07:50:29;;;;;;;19.90;14.48;;;;;;;17.18;78.31;101229.31;5071260;28;20502;-82
2021/09/03 07:52:54;;;;;;;16.73;13.20;;;;;;;17.24;78.21;101220.31;5070961;28;20036;-82
2021/09/03 07:55:20;;;;;;;22.38;13.93;;;;;;;17.34;78.76;101212.94;5049744;28;20072;-83
2021/09/03 07:57:45;;;;;;;15.85;13.05;;;;;;;17.42;78.18;101209.22;5052022;28;20033;-83
2021/09/03 08:00:11;;;;;;;17.15;13.13;;;;;;;17.55;77.35;101209.75;5050381;28;20048;-82
2021/09/03 08:02:36;;;;;;;14.73;12.95;;;;;;;17.64;77.75;101216.69;5069211;28;20076;-82
2021/09/03 08:05:04;;;;;;;17.73;13.25;;;;;;;17.75;76.63;101215.50;5069518;28;20160;-83
2021/09/03 08:07:30;;;;;;;17.17;13.60;;;;;;;17.78;76.59;101206.53;5064317;28;20069;-82
2021/09/03 08:09:56;;;;;;;15.93;12.88;;;;;;;17.85;76.36;101205.50;5052708;28;20389;-82
2021/09/03 08:12:21;;;;;;;18.42;13.55;;;;;;;17.99;76.29;101212.28;5070025;28;20078;-82
2021/09/03 08:14:47;;;;;;;15.55;13.05;;;;;;;18.07;76.34;101210.28;5017460;28;20395;-82
2021/09/03 08:17:12;;;;;;;18.67;13.43;;;;;;;18.22;76.44;101215.22;5070992;28;20516;-82
2021/09/03 08:19:37;;;;;;;14.27;12.27;;;;;;;18.32;75.91;101210.50;5049420;28;20112;-83
2021/09/03 08:22:03;;;;;;;15.10;11.32;;;;;;;18.42;75.29;101208.44;5058434;28;20044;-83
2021/09/03 08:24:28;;;;;;;14.88;12.18;;;;;;;18.47;74.22;101193.16;5055263;28;20037;-82
2021/09/03 08:27:23;;;;;;;16.88;12.57;;;;;;;18.60;74.19;101205.25;5035417;28;20037;-83
2021/09/03 08:29:49;;;;;;;17.10;13.02;;;;;;;18.64;73.46;101193.56;5038564;28;20058;-83
2021/09/03 08:32:15;;;;;;;13.70;11.25;;;;;;;18.72;73.85;101199.56;5052061;28;20039;-83
2021/09/03 08:34:42;;;;;;;16.75;12.20;;;;;;;18.83;73.87;101199.28;5071639;28;20037;-83
2021/09/03 08:37:07;;;;;;;15.05;11.45;;;;;;;18.94;73.46;101199.84;5070875;28;20517;-82
2021/09/03 08:39:33;;;;;;;16.73;10.63;;;;;;;19.02;73.20;101202.25;5068527;28;20033;-83
2021/09/03 08:41:58;;;;;;;13.32;10.23;;;;;;;19.17;73.48;101190.22;5047066;28;20092;-83
2021/09/03 08:44:24;;;;;;;14.55;10.77;;;;;;;19.35;72.88;101191.44;5070687;28;20100;-82
2021/09/03 08:46:49;;;;;;;14.25;9.13;;;;;;;19.48;70.62;101195.47;5032109;28;20029;-82
2021/09/03 08:49:14;;;;;;;13.00;9.32;;;;;;;19.53;70.58;101193.53;5065445;28;20044;-82
2021/09/03 08:51:40;;;;;;;11.23;8.85;;;;;;;19.68;69.71;101181.47;5063848;28;20364;-82
2021/09/03 08:54:05;;;;;;;9.48;7.85;;;;;;;19.77;68.16;101180.28;5034989;28;20120;-82
2021/09/03 08:56:31;;;;;;;12.75;8.93;;;;;;;19.80;69.42;101180.16;5065663;28;20542;-83
2021/09/03 08:58:57;;;;;;;12.52;8.93;;;;;;;19.87;67.92;101177.22;5035749;28;20025;-82
2021/09/03 09:01:22;;;;;;;12.77;9.27;;;;;;;20.01;67.44;101179.41;5068918;28;20032;-83
2021/09/03 09:03:51;;;;;;;11.27;8.25;;;;;;;20.01;67.44;101183.91;5070686;28;20040;-82
2021/09/03 09:06:25;;;;;;;10.75;7.57;;;;;;;20.07;67.57;101176.53;5050865;28;20036;-83
2021/09/03 09:09:06;;;;;;;10.45;6.72;;;;;;;20.20;66.28;101176.06;5070249;28;20142;-82
2021/09/03 09:11:33;;;;;;;11.98;7.78;;;;;;;20.30;66.82;101174.81;5064009;28;20679;-83
2021/09/03 09:14:01;;;;;;;10.80;6.20;;;;;;;20.38;65.25;101172.72;5070098;28;20047;-83
2021/09/03 09:16:30;;;;;;;9.93;7.38;;;;;;;20.45;65.06;101166.22;5067559;28;20063;-83
2021/09/03 09:18:58;;;;;;;11.27;6.70;;;;;;;20.58;64.85;101158.63;5054717;28;20047;-83
2021/09/03 09:21:48;;;;;;;10.95;6.90;;;;;;;20.67;63.79;101162.75;5048713;28;20069;-83
2021/09/03 09:24:14;;;;;;;10.70;7.35;;;;;;;20.70;64.08;101159.97;5049279;28;20537;-82
2021/09/03 09:26:55;;;;;;;14.02;8.23;;;;;;;20.75;62.57;101157.97;5013779;28;20064;-83
2021/09/03 09:29:31;;;;;;;10.70;7.30;;;;;;;20.86;63.92;101157.59;5066448;28;20447;-83
2021/09/03 09:32:08;;;;;;;8.52;7.22;;;;;;;20.98;63.03;101149.91;5050214;28;20044;-83
2021/09/03 09:34:35;;;;;;;12.00;8.00;;;;;;;21.05;62.46;101147.00;5051111;28;20048;-83
2021/09/03 09:37:06;;;;;;;11.80;7.90;;;;;;;21.13;61.45;101144.88;5068437;28;20037;-82
2021/09/03 09:39:52;;;;;;;10.88;7.50;;;;;;;21.19;61.37;101136.56;5049300;28;20032;-82
2021/09/03 09:42:27;;;;;;;9.32;6.82;;;;;;;21.28;60.78;101132.66;5068862;28;20037;-83
2021/09/03 09:45:03;;;;;;;9.32;6.82;;;;;;;21.36;60.85;101131.38;5043872;28;20398;-83
2021/09/03 09:47:29;;;;;;;8.75;6.57;;;;;;;21.42;60.56;101131.16;5065429;28;20040;-83
2021/09/03 09:49:54;;;;;;;9.10;6.50;;;;;;;21.55;60.43;101133.31;5067504;28;20458;-83
2021/09/03 09:52:36;;;;;;;9.45;6.78;;;;;;;21.67;59.79;101130.13;5071189;28;20509;-83
2021/09/03 09:55:05;;;;;;;9.55;7.05;;;;;;;21.74;58.74;101119.97;5026876;28;20034;-82
2021/09/03 09:57:33;;;;;;;11.82;7.65;;;;;;;21.80;58.70;101120.59;5068605;28;20044;-83
2021/09/03 10:00:04;;;;;;;10.27;8.20;;;;;;;21.79;58.48;101118.84;5050226;28;20035;-82
2021/09/03 10:02:37;;;;;;;10.75;7.13;;;;;;;21.95;57.86;101124.41;5069002;28;20032;-84
2021/09/03 10:05:04;;;;;;;10.60;7.05;;;;;;;21.92;57.13;101121.84;5050478;28;20075;-86
2021/09/03 10:07:30;;;;;;;11.73;9.30;;;;;;;22.02;57.33;101115.13;5077663;28;20029;-84
2021/09/03 10:09:56;;;;;;;10.85;7.30;;;;;;;22.18;56.68;101101.88;5053663;28;20032;-84
2021/09/03 10:12:22;;;;;;;9.85;6.22;;;;;;;22.34;55.66;101109.28;5069101;28;20040;-84
2021/09/03 10:14:49;;;;;;;11.18;7.60;;;;;;;22.44;56.24;101105.22;5068528;28;20040;-84
2021/09/03 10:17:20;;;;;;;9.63;7.25;;;;;;;22.64;55.34;101097.09;5066842;28;20529;-84
2021/09/03 10:19:54;;;;;;;10.65;6.18;;;;;;;22.66;55.94;101092.53;5045140;28;20033;-85
2021/09/03 10:22:22;;;;;;;8.55;6.07;;;;;;;22.60;55.19;101100.88;5031366;28;20048;-84
2021/09/03 10:25:04;;;;;;;12.13;9.15;;;;;;;22.47;55.72;101095.19;5047344;28;20506;-85
2021/09/03 10:27:30;;;;;;;9.80;7.25;;;;;;;22.74;55.83;101093.03;5040717;28;20106;-84
2021/09/03 10:30:25;;;;;;;11.10;6.88;;;;;;;23.10;53.68;101089.50;5050821;28;20502;-84
2021/09/03 10:32:50;;;;;;;8.95;6.03;;;;;;;23.51;54.91;101086.56;5046225;28;20546;-84
2021/09/03 10:35:21;;;;;;;9.70;6.18;;;;;;;23.86;51.61;101083.00;5041960;28;20079;-85
2021/09/03 10:37:47;;;;;;;8.45;6.28;;;;;;;24.20;51.20;101079.38;5036094;28;20156;-85
2021/09/03 10:40:20;;;;;;;8.07;5.85;;;;;;;24.06;51.24;101080.97;5058331;28;20028;-84
2021/09/03 10:42:51;;;;;;;7.47;5.68;;;;;;;23.89;51.21;101081.00;5025574;28;20041;-84
2021/09/03 10:45:28;;;;;;;9.10;5.05;;;;;;;23.71;50.42;101074.75;5031627;28;20028;-84
2021/09/03 10:47:56;;;;;;;8.65;5.60;;;;;;;23.81;49.65;101075.16;5046698;28;20040;-83
2021/09/03 10:50:35;;;;;;;7.95;5.75;;;;;;;23.96;49.38;101068.94;5070426;28;20132;-86
2021/09/03 10:53:04;;;;;;;9.07;5.75;;;;;;;24.26;50.47;101060.13;5063605;28;20034;-86
2021/09/03 10:55:48;;;;;;;8.75;5.85;;;;;;;24.39;48.65;101050.44;5035567;28;20033;-85
2021/09/03 10:58:38;;;;;;;9.25;6.15;;;;;;;24.32;47.85;101040.06;5050106;28;20041;-84
2021/09/03 11:01:09;;;;;;;8.85;6.55;;;;;;;24.28;49.57;101039.34;5026480;28;20049;-84
2021/09/03 11:03:36;;;;;;;10.85;6.15;;;;;;;24.56;49.15;101037.84;5025595;28;20037;-84
2021/09/03 11:06:01;;;;;;;8.60;5.68;;;;;;;24.41;49.37;101043.09;5065615;28;20028;-84
2021/09/03 11:08:44;;;;;;;9.07;5.43;;;;;;;23.88;49.31;101040.66;5067523;28;20029;-84
2021/09/03 11:11:30;;;;;;;8.55;5.90;;;;;;;23.70;50.30;101037.09;5051103;28;20040;-84
2021/09/03 11:14:00;;;;;;;7.60;5.88;;;;;;;23.78;49.45;101037.59;5063301;28;20142;-84
2021/09/03 11:16:43;;;;;;;7.75;5.55;;;;;;;23.79;49.30;101040.22;5048377;28;20436;-84